Portada
METAR-TAF:

METAR-TAF

Aeropuertos :

Hammond Northshore Regional Airport

Hammond, Luisiana, Estados Unidos

latitud: 30-31-15N, longitud: 090-25-03W, altitud: 13 m

Observación

El informe se hizo hace 24 minutos, a las 03:15 UTC
Viento 6 kt del oeste
Temperatura 28°C
Humedad 84%
Presión 1014 hPa
Visibilidad: 16.1 km
Cielo despejado

METAR: KHDC 100315Z AUTO 26006KT 10SM CLR 28/25 A2995 RMK AO2

Hora: 22:39 (03:39 UTC)

Pronóstico

El informe se hizo hace 4 horas y 19 minutos, a las 23:20 UTC
Pronóstico válido del 10 a las 00 UTC al 10 a las 24 UTC
Viento 7 kt del oeste
Visibilidad: 10 km
Nubes dispersas a una altura de 4500 ft

TAF: KHDC 092320Z 1000/1024 27007KT P6SM SCT045

Observaciones y pronósticos meteorológicos de más de 4000 aeropuertos (mensajes METAR y TAF).

Los puntos amarillos y rojos representan las estaciones disponibles.

Ponga el ratón en el punto deseado para ver el nombre de la estación.

Haga clic para ver las observaciones y los pronósticos meteorológicos.

Para cambiar el mapa : haga clic en los botones verdes con una cruz de color negro para hacer un zoom, en el botón verde con un guión para alejar o en las flechas verdes para mapas adyacentes.


METAR-TAF: